Terminal Aerodrome Forecast
Issued by NWS Mt. Holly, NJ

Home | Current Version | Previous Version | Text Only | Print | Product List | Glossary On
Versions: 1 2 3 4 5 6 7 8 9 10 11 12 13 14 15 16 17 18 19 20
000
FTUS41 KPHI 301100
TAFABE
TAF
KABE 301136Z 3012/3112 26005KT 5SM -SN BR OVC040
     FM301230 29009KT 2SM -SN BKN025
     FM301330 30012G19KT 6SM -SN SCT025 OVC035
     FM301600 31015G25KT P6SM BKN035
     FM302100 32022G39KT P6SM BKN035
     FM310800 32017G30KT P6SM SKC=

USA.gov is the U.S. government's official web portal to all federal, state and local government web resources and services.